createdAt,value
2023-01-29T00:02:09.978Z,99942.49
2023-01-29T00:05:16.725Z,99943.52
2023-01-29T00:08:15.117Z,99949.09
2023-01-29T00:11:10.236Z,99949.86
2023-01-29T00:14:03.382Z,99946.97
2023-01-29T00:16:56.447Z,99948.78
2023-01-29T00:19:49.339Z,99953.26
2023-01-29T00:22:42.113Z,99954.81
2023-01-29T00:25:34.927Z,99948.94
2023-01-29T00:28:26.397Z,99953.95
2023-01-29T00:31:22.170Z,99953.26
2023-01-29T00:34:15.072Z,99951.10
2023-01-29T00:37:09.732Z,99953.70
2023-01-29T00:40:02.550Z,99950.25
2023-01-29T00:43:06.223Z,99945.11
2023-01-29T00:45:58.957Z,99944.57
2023-01-29T00:48:52.229Z,99948.27
2023-01-29T00:52:05.052Z,99961.80
2023-01-29T00:54:59.663Z,99961.05
2023-01-29T00:57:53.635Z,99957.91
2023-01-29T01:00:46.397Z,99954.77
2023-01-29T01:03:42.245Z,99952.81
2023-01-29T01:06:34.617Z,99954.20
2023-01-29T01:09:45.957Z,99950.27
2023-01-29T01:12:40.169Z,99952.60
2023-01-29T01:15:36.601Z,99952.70
2023-01-29T01:18:32.475Z,99945.55
2023-01-29T01:21:25.235Z,99940.75
2023-01-29T01:24:18.063Z,99944.95
2023-01-29T01:27:03.991Z,99951.89
2023-01-29T01:29:58.002Z,99947.86
2023-01-29T01:32:50.984Z,99951.88
2023-01-29T01:35:44.475Z,99961.45
2023-01-29T01:38:37.397Z,99963.09
2023-01-29T01:41:23.119Z,99954.32
2023-01-29T01:44:45.948Z,99949.98
2023-01-29T01:47:46.407Z,99947.25
2023-01-29T01:50:37.507Z,99956.51
2023-01-29T01:53:30.864Z,99964.11
2023-01-29T01:56:29.297Z,99959.95
2023-01-29T01:59:23.987Z,99952.73
2023-01-29T02:02:34.873Z,99947.94
2023-01-29T02:05:46.064Z,99950.47
2023-01-29T02:08:50.555Z,99955.30
2023-01-29T02:11:43.396Z,99955.61
2023-01-29T02:14:40.264Z,99956.76
2023-01-29T02:17:33.569Z,99952.39
2023-01-29T02:20:28.253Z,99949.73
2023-01-29T02:23:41.101Z,99948.41
2023-01-29T02:26:56.947Z,99941.02
2023-01-29T02:30:03.478Z,99933.40
2023-01-29T02:33:07.631Z,99929.54
2023-01-29T02:36:10.736Z,99925.98
2023-01-29T02:39:14.015Z,99918.02
2023-01-29T02:42:18.675Z,99910.09
2023-01-29T02:45:15.356Z,99907.70
2023-01-29T02:48:13.487Z,99901.75
2023-01-29T02:51:07.311Z,99901.48
2023-01-29T02:54:04.680Z,99908.66
2023-01-29T02:57:00.816Z,99911.05
2023-01-29T02:59:57.165Z,99915.80
2023-01-29T03:02:49.354Z,99918.14
2023-01-29T03:05:51.185Z,99921.48
2023-01-29T03:08:45.751Z,99924.27
2023-01-29T03:11:42.746Z,99929.64
2023-01-29T03:14:54.290Z,99935.61
2023-01-29T03:17:52.649Z,99938.59
2023-01-29T03:20:49.333Z,99936.04
2023-01-29T03:24:00.665Z,99935.51
2023-01-29T03:27:11.645Z,99942.27
2023-01-29T03:30:23.834Z,99941.55
2023-01-29T03:33:17.407Z,99937.74
2023-01-29T03:36:16.412Z,99938.95
2023-01-29T03:39:11.573Z,99932.77
2023-01-29T03:42:14.135Z,99929.54
2023-01-29T03:45:05.478Z,99932.17
2023-01-29T03:48:08.012Z,99934.12
2023-01-29T03:51:10.190Z,99932.09
2023-01-29T03:54:11.154Z,99929.23
2023-01-29T03:57:15.553Z,99929.96
2023-01-29T04:00:17.509Z,99931.58
2023-01-29T04:03:18.379Z,99927.50
2023-01-29T04:06:11.124Z,99930.14
2023-01-29T04:09:09.356Z,99926.02
2023-01-29T04:12:02.217Z,99917.62
2023-01-29T04:14:56.419Z,99913.41
2023-01-29T04:17:41.145Z,99917.36
2023-01-29T04:20:38.578Z,99919.52
2023-01-29T04:23:33.291Z,99922.90
2023-01-29T04:26:57.309Z,99926.55
2023-01-29T04:30:04.603Z,99925.65
2023-01-29T04:33:11.837Z,99929.41
2023-01-29T04:36:01.587Z,99934.64
2023-01-29T04:39:12.016Z,99933.98
2023-01-29T04:42:12.335Z,99933.20
2023-01-29T04:45:07.463Z,99926.15
2023-01-29T04:48:14.199Z,99924.86
2023-01-29T04:51:13.851Z,99910.98
2023-01-29T04:54:13.780Z,99907.33
2023-01-29T04:57:09.696Z,99906.94
2023-01-29T05:00:08.623Z,99908.94
2023-01-29T05:03:02.973Z,99908.38
2023-01-29T05:05:59.356Z,99900.63
2023-01-29T05:08:53.782Z,99896.58
2023-01-29T05:11:39.989Z,99891.05
2023-01-29T05:14:35.425Z,99888.92
2023-01-29T05:17:28.460Z,99890.63
2023-01-29T05:20:21.921Z,99892.83
2023-01-29T05:23:20.475Z,99885.86
2023-01-29T05:26:25.587Z,99877.95
2023-01-29T05:29:18.478Z,99877.08
2023-01-29T05:32:11.234Z,99874.58
2023-01-29T05:35:04.314Z,99877.29
2023-01-29T05:37:57.672Z,99873.02
2023-01-29T05:40:45.489Z,99870.86
2023-01-29T05:43:38.247Z,99871.71
2023-01-29T05:46:31.686Z,99875.74
2023-01-29T05:49:25.185Z,99877.01
2023-01-29T05:52:18.495Z,99886.31
2023-01-29T05:55:12.783Z,99894.02
2023-01-29T05:58:06.282Z,99899.39
2023-01-29T06:00:52.699Z,99901.70
2023-01-29T06:03:46.469Z,99903.30
2023-01-29T06:06:39.237Z,99904.02
2023-01-29T06:09:32.318Z,99909.70
2023-01-29T06:12:25.093Z,99910.67
2023-01-29T06:15:12.588Z,99919.78
2023-01-29T06:18:05.425Z,99925.21
2023-01-29T06:21:03.788Z,99931.09
2023-01-29T06:23:56.986Z,99933.20
2023-01-29T06:26:50.041Z,99931.79
2023-01-29T06:29:42.819Z,99928.16
2023-01-29T06:32:37.280Z,99927.65
2023-01-29T06:35:30.111Z,99930.67
2023-01-29T06:38:22.973Z,99933.57
2023-01-29T06:41:17.287Z,99939.28
2023-01-29T06:44:10.270Z,99943.51
2023-01-29T06:47:03.378Z,99941.16
2023-01-29T06:49:56.526Z,99952.44
2023-01-29T06:52:47.967Z,99954.14
2023-01-29T06:55:40.839Z,99952.15
2023-01-29T06:58:34.443Z,99946.00
2023-01-29T07:01:35.626Z,99940.15
2023-01-29T07:04:22.106Z,99944.42
2023-01-29T07:07:14.818Z,99943.46
2023-01-29T07:10:08.952Z,99943.70
2023-01-29T07:13:03.237Z,99941.77
2023-01-29T07:15:46.243Z,99948.11
2023-01-29T07:18:39.155Z,99945.39
2023-01-29T07:21:32.440Z,99938.16
2023-01-29T07:24:25.412Z,99940.40
2023-01-29T07:27:10.860Z,99937.96
2023-01-29T07:30:03.344Z,99937.98
2023-01-29T07:32:56.211Z,99934.00
2023-01-29T07:35:44.921Z,99937.40
2023-01-29T07:38:28.723Z,99947.55
2023-01-29T07:41:22.058Z,99947.35
2023-01-29T07:44:15.160Z,99954.00
2023-01-29T07:47:01.926Z,99961.04
2023-01-29T07:49:54.695Z,99960.36
2023-01-29T07:52:33.272Z,99961.00
2023-01-29T07:55:17.520Z,99960.89
2023-01-29T07:58:10.429Z,99964.38
2023-01-29T08:00:57.343Z,99970.98
2023-01-29T08:03:51.343Z,99974.64
2023-01-29T08:06:43.980Z,99979.96
2023-01-29T08:09:37.048Z,99990.49
2023-01-29T08:12:29.916Z,99994.91
2023-01-29T08:15:22.636Z,99997.70
2023-01-29T08:18:14.784Z,100002.31
2023-01-29T08:21:07.847Z,100000.17
2023-01-29T08:23:54.636Z,100000.92
2023-01-29T08:26:47.345Z,100006.23
2023-01-29T08:29:40.037Z,100014.29
2023-01-29T08:32:33.173Z,100025.11
2023-01-29T08:35:26.203Z,100031.97
2023-01-29T08:38:19.209Z,100030.61
2023-01-29T08:41:12.003Z,100042.70
2023-01-29T08:44:04.853Z,100040.08
2023-01-29T08:46:56.551Z,100043.06
2023-01-29T08:49:49.252Z,100052.41
2023-01-29T08:52:29.357Z,100045.44
2023-01-29T08:55:22.171Z,100040.86
2023-01-29T08:58:16.397Z,100047.11
2023-01-29T09:01:13.999Z,100042.63
2023-01-29T09:04:07.481Z,100040.00
2023-01-29T09:07:08.629Z,100035.67
2023-01-29T09:10:15.482Z,100028.91
2023-01-29T09:13:08.345Z,100028.35
2023-01-29T09:16:03.825Z,100031.59
2023-01-29T09:18:57.368Z,100035.17
2023-01-29T09:21:50.788Z,100031.89
2023-01-29T09:24:43.548Z,100033.55
2023-01-29T09:27:36.579Z,100030.20
2023-01-29T09:30:32.313Z,100032.20
2023-01-29T09:33:26.271Z,100028.80
2023-01-29T09:36:18.068Z,100025.38
2023-01-29T09:39:04.984Z,100017.66
2023-01-29T09:41:53.148Z,100017.73
2023-01-29T09:45:01.729Z,100019.88
2023-01-29T09:47:57.245Z,100008.77
2023-01-29T09:50:53.023Z,100003.82
2023-01-29T09:53:53.957Z,99995.91
2023-01-29T09:56:49.899Z,99980.23
2023-01-29T09:59:35.527Z,99975.71
2023-01-29T10:02:52.592Z,99976.73
2023-01-29T10:06:34.844Z,99974.59
2023-01-29T10:10:02.349Z,99974.41
2023-01-29T10:13:18.863Z,99970.81
2023-01-29T10:16:19.943Z,99964.91
2023-01-29T10:19:38.250Z,99957.25
2023-01-29T10:22:47.351Z,99950.10
2023-01-29T10:25:38.309Z,99942.77
2023-01-29T10:28:36.615Z,99940.41
2023-01-29T10:31:33.029Z,99937.58
2023-01-29T10:34:31.366Z,99938.61
2023-01-29T10:37:32.514Z,99939.41
2023-01-29T10:40:28.736Z,99940.39
2023-01-29T10:43:19.328Z,99938.61
2023-01-29T10:46:29.552Z,99931.02
2023-01-29T10:49:58.897Z,99916.65
2023-01-29T10:53:20.096Z,99903.08
2023-01-29T10:56:40.440Z,99896.22
2023-01-29T10:59:53.454Z,99881.83
2023-01-29T11:02:51.827Z,99876.73
2023-01-29T11:05:51.729Z,99869.94
2023-01-29T11:08:49.764Z,99859.12
2023-01-29T11:11:49.164Z,99852.87
2023-01-29T11:14:47.241Z,99844.19
2023-01-29T11:17:40.840Z,99838.04
2023-01-29T11:20:32.048Z,99835.90
2023-01-29T11:23:31.413Z,99836.70
2023-01-29T11:26:25.045Z,99834.16
2023-01-29T11:29:39.052Z,99823.70
2023-01-29T11:32:36.775Z,99818.01
2023-01-29T11:35:30.767Z,99821.65
2023-01-29T11:38:27.730Z,99815.30
2023-01-29T11:41:22.546Z,99817.17
2023-01-29T11:44:31.822Z,99805.55
2023-01-29T11:47:28.676Z,99800.17
2023-01-29T11:50:26.297Z,99797.38
2023-01-29T11:53:35.459Z,99792.69
2023-01-29T11:56:31.268Z,99793.20
2023-01-29T11:59:49.046Z,99796.10
2023-01-29T12:02:47.261Z,99789.55
2023-01-29T12:05:42.191Z,99784.16
2023-01-29T12:08:39.906Z,99776.70
2023-01-29T12:11:34.583Z,99774.48
2023-01-29T12:14:33.648Z,99767.03
2023-01-29T12:17:29.128Z,99759.72
2023-01-29T12:20:20.108Z,99766.44
2023-01-29T12:23:30.994Z,99768.00
2023-01-29T12:26:32.437Z,99766.63
2023-01-29T12:29:32.003Z,99761.42
2023-01-29T12:32:34.232Z,99760.95
2023-01-29T12:35:25.643Z,99760.30
2023-01-29T12:38:22.003Z,99765.30
2023-01-29T12:41:45.098Z,99755.33
2023-01-29T12:44:42.383Z,99752.66
2023-01-29T12:47:39.501Z,99746.88
2023-01-29T12:50:29.079Z,99742.63
2023-01-29T12:53:30.992Z,99744.15
2023-01-29T12:56:33.151Z,99744.76
2023-01-29T12:59:29.382Z,99739.77
2023-01-29T13:02:32.183Z,99737.27
2023-01-29T13:05:29.665Z,99732.88
2023-01-29T13:08:26.351Z,99729.84
2023-01-29T13:11:23.715Z,99736.19
2023-01-29T13:14:15.697Z,99734.56
2023-01-29T13:17:09.110Z,99729.42
2023-01-29T13:20:06.739Z,99735.11
2023-01-29T13:23:06.130Z,99738.35
2023-01-29T13:25:55.387Z,99745.48
2023-01-29T13:28:46.191Z,99742.89
2023-01-29T13:31:46.642Z,99743.72
2023-01-29T13:34:28.514Z,99741.08
2023-01-29T13:37:20.143Z,99743.04
2023-01-29T13:40:04.166Z,99740.95
2023-01-29T13:42:53.246Z,99738.23
2023-01-29T13:45:48.691Z,99738.20
2023-01-29T13:48:47.302Z,99734.41
2023-01-29T13:51:41.424Z,99731.16
2023-01-29T13:54:34.710Z,99731.31
2023-01-29T13:57:54.782Z,99730.58
2023-01-29T14:00:52.848Z,99727.71
2023-01-29T14:04:03.757Z,99722.00
2023-01-29T14:06:59.996Z,99718.31
2023-01-29T14:10:14.802Z,99714.46
2023-01-29T14:13:32.202Z,99713.73
2023-01-29T14:16:37.678Z,99706.23
2023-01-29T14:19:25.767Z,99703.80
2023-01-29T14:22:24.993Z,99699.14
2023-01-29T14:25:22.924Z,99702.30
2023-01-29T14:28:21.600Z,99704.39
2023-01-29T14:31:07.712Z,99698.96
2023-01-29T14:33:50.701Z,99697.85
2023-01-29T14:36:46.618Z,99697.73
2023-01-29T14:39:47.511Z,99700.83
2023-01-29T14:42:50.251Z,99705.16
2023-01-29T14:45:32.014Z,99708.98
2023-01-29T14:48:48.708Z,99708.23
2023-01-29T14:51:46.753Z,99713.98
2023-01-29T14:54:30.639Z,99711.48
2023-01-29T14:57:24.959Z,99710.50
2023-01-29T15:00:17.347Z,99708.09
2023-01-29T15:03:23.101Z,99709.69
2023-01-29T15:06:24.536Z,99705.59
2023-01-29T15:09:03.876Z,99705.30
2023-01-29T15:11:59.013Z,99709.46
2023-01-29T15:14:53.681Z,99706.15
2023-01-29T15:17:32.399Z,99701.63
2023-01-29T15:20:35.291Z,99702.55
2023-01-29T15:23:27.661Z,99699.38
2023-01-29T15:26:27.019Z,99698.52
2023-01-29T15:29:28.314Z,99702.67
2023-01-29T15:32:29.866Z,99706.94
2023-01-29T15:35:31.575Z,99707.02
2023-01-29T15:38:26.422Z,99703.02
2023-01-29T15:41:23.836Z,99700.23
2023-01-29T15:44:19.642Z,99698.56
2023-01-29T15:47:14.495Z,99700.05
2023-01-29T15:49:52.241Z,99698.40
2023-01-29T15:52:36.421Z,99690.17
2023-01-29T15:55:16.316Z,99682.34
2023-01-29T15:57:54.380Z,99682.04
2023-01-29T16:00:54.854Z,99678.83
2023-01-29T16:03:30.846Z,99678.00
2023-01-29T16:06:17.131Z,99683.51
2023-01-29T16:08:53.545Z,99678.04
2023-01-29T16:11:49.243Z,99684.25
2023-01-29T16:14:44.874Z,99683.89
2023-01-29T16:17:41.948Z,99683.40
2023-01-29T16:20:42.624Z,99687.63
2023-01-29T16:23:46.356Z,99690.60
2023-01-29T16:26:36.526Z,99692.41
2023-01-29T16:29:34.447Z,99696.11
2023-01-29T16:32:26.059Z,99691.77
2023-01-29T16:35:19.895Z,99689.98
2023-01-29T16:38:29.394Z,99690.84
2023-01-29T16:41:33.705Z,99683.53
2023-01-29T16:44:37.690Z,99672.90
2023-01-29T16:47:25.940Z,99674.34
2023-01-29T16:50:40.559Z,99676.74
2023-01-29T16:53:34.844Z,99670.85
2023-01-29T16:56:30.161Z,99672.33
2023-01-29T16:59:28.399Z,99670.84
2023-01-29T17:02:23.164Z,99668.90
2023-01-29T17:05:10.970Z,99668.10
2023-01-29T17:07:56.738Z,99668.52
2023-01-29T17:10:51.710Z,99668.87
2023-01-29T17:13:39.904Z,99663.71
2023-01-29T17:16:35.300Z,99665.69
2023-01-29T17:19:30.179Z,99671.14
2023-01-29T17:22:22.931Z,99669.33
2023-01-29T17:25:18.921Z,99667.20
2023-01-29T17:28:16.177Z,99667.08
2023-01-29T17:31:06.623Z,99667.83
2023-01-29T17:33:58.780Z,99669.39
2023-01-29T17:36:51.358Z,99667.13
2023-01-29T17:39:34.683Z,99657.21
2023-01-29T17:42:28.890Z,99644.08
2023-01-29T17:45:23.796Z,99641.65
2023-01-29T17:48:19.606Z,99638.08
2023-01-29T17:51:16.681Z,99638.84
2023-01-29T17:54:09.603Z,99642.89
2023-01-29T17:57:05.208Z,99638.02
2023-01-29T17:59:58.358Z,99620.73
2023-01-29T18:02:36.665Z,99610.65
2023-01-29T18:05:30.209Z,99610.02
2023-01-29T18:08:27.836Z,99605.02
2023-01-29T18:11:19.461Z,99602.96
2023-01-29T18:14:14.138Z,99612.02
2023-01-29T18:17:07.592Z,99625.15
2023-01-29T18:19:53.386Z,99624.79
2023-01-29T18:22:46.891Z,99620.42
2023-01-29T18:25:29.756Z,99616.14
2023-01-29T18:28:23.187Z,99613.54
2023-01-29T18:31:16.207Z,99602.89
2023-01-29T18:34:03.052Z,99603.27
2023-01-29T18:36:56.017Z,99605.69
2023-01-29T18:39:48.896Z,99594.01
2023-01-29T18:42:41.915Z,99602.29
2023-01-29T18:45:27.476Z,99605.03
2023-01-29T18:48:14.273Z,99608.89
2023-01-29T18:51:08.928Z,99609.79
2023-01-29T18:54:02.029Z,99606.55
2023-01-29T18:57:08.717Z,99601.85
2023-01-29T18:59:49.409Z,99608.86
2023-01-29T19:02:43.166Z,99609.06
2023-01-29T19:05:17.116Z,99609.27
2023-01-29T19:08:10.728Z,99603.39
2023-01-29T19:11:08.526Z,99598.91
2023-01-29T19:14:01.339Z,99594.41
2023-01-29T19:16:47.195Z,99594.13
2023-01-29T19:19:40.628Z,99592.05
2023-01-29T19:22:24.637Z,99588.75
2023-01-29T19:25:19.694Z,99591.16
2023-01-29T19:28:12.805Z,99588.92
2023-01-29T19:31:01.318Z,99583.20
2023-01-29T19:33:54.811Z,99580.86
2023-01-29T19:36:46.381Z,99577.95
2023-01-29T19:39:39.188Z,99573.83
2023-01-29T19:42:25.112Z,99569.11
2023-01-29T19:45:18.439Z,99565.20
2023-01-29T19:48:30.372Z,99572.66
2023-01-29T19:51:24.801Z,99564.52
2023-01-29T19:54:10.357Z,99562.55
2023-01-29T19:57:04.474Z,99558.60
2023-01-29T19:59:45.839Z,99558.65
2023-01-29T20:02:39.042Z,99554.57
2023-01-29T20:05:37.552Z,99553.85
2023-01-29T20:08:30.339Z,99558.09
2023-01-29T20:11:24.928Z,99557.85
2023-01-29T20:14:20.425Z,99553.26
2023-01-29T20:17:13.187Z,99548.27
2023-01-29T20:20:07.037Z,99554.71
2023-01-29T20:23:01.557Z,99552.41
2023-01-29T20:25:48.107Z,99550.89
2023-01-29T20:28:31.059Z,99540.48
2023-01-29T20:31:22.695Z,99532.57
2023-01-29T20:34:18.414Z,99533.77
2023-01-29T20:37:11.161Z,99532.90
2023-01-29T20:40:02.913Z,99533.63
2023-01-29T20:42:54.533Z,99529.33
2023-01-29T20:45:47.277Z,99528.71
2023-01-29T20:48:42.138Z,99524.23
2023-01-29T20:51:23.774Z,99521.16
2023-01-29T20:54:12.616Z,99518.33
2023-01-29T20:57:05.532Z,99512.84
2023-01-29T21:00:00.145Z,99513.79
2023-01-29T21:02:52.913Z,99506.89
2023-01-29T21:05:45.674Z,99508.99
2023-01-29T21:08:38.885Z,99505.98
2023-01-29T21:11:33.944Z,99499.51
2023-01-29T21:14:26.713Z,99498.47
2023-01-29T21:17:20.161Z,99500.39
2023-01-29T21:20:15.177Z,99500.25
2023-01-29T21:23:05.323Z,99503.44
2023-01-29T21:26:05.277Z,99504.53
2023-01-29T21:28:58.566Z,99504.02
2023-01-29T21:31:51.447Z,99502.22
2023-01-29T21:34:44.775Z,99506.48
2023-01-29T21:37:20.541Z,99507.71
2023-01-29T21:40:03.575Z,99510.91
2023-01-29T21:43:16.145Z,99509.66
2023-01-29T21:46:12.621Z,99511.00
2023-01-29T21:49:05.566Z,99502.03
2023-01-29T21:51:59.479Z,99490.45
2023-01-29T21:54:52.268Z,99486.50
2023-01-29T21:57:47.325Z,99482.39
2023-01-29T22:00:40.083Z,99481.05
2023-01-29T22:03:34.674Z,99473.69
2023-01-29T22:06:27.513Z,99469.41
2023-01-29T22:09:20.555Z,99465.94
2023-01-29T22:12:13.643Z,99465.14
2023-01-29T22:15:00.256Z,99460.67
2023-01-29T22:17:53.072Z,99458.91
2023-01-29T22:20:45.840Z,99450.33
2023-01-29T22:23:21.417Z,99445.08
2023-01-29T22:26:14.280Z,99444.16
2023-01-29T22:29:05.879Z,99437.36
2023-01-29T22:31:58.829Z,99428.13
2023-01-29T22:34:51.792Z,99419.82
2023-01-29T22:37:44.887Z,99413.98
2023-01-29T22:40:37.955Z,99408.84
2023-01-29T22:43:19.403Z,99407.24
2023-01-29T22:46:14.900Z,99406.81
2023-01-29T22:49:07.915Z,99404.50
2023-01-29T22:52:11.605Z,99403.88
2023-01-29T22:54:54.732Z,99400.14
2023-01-29T22:57:51.402Z,99391.17
2023-01-29T23:00:44.151Z,99385.21
2023-01-29T23:03:37.258Z,99381.45
2023-01-29T23:06:30.087Z,99375.59
2023-01-29T23:09:22.905Z,99368.16
2023-01-29T23:12:16.198Z,99370.03
2023-01-29T23:15:10.292Z,99373.63
2023-01-29T23:18:03.852Z,99366.84
2023-01-29T23:21:01.372Z,99363.46
2023-01-29T23:23:55.518Z,99358.58
2023-01-29T23:27:06.320Z,99355.88
2023-01-29T23:29:59.059Z,99357.48
2023-01-29T23:32:51.792Z,99356.98
2023-01-29T23:35:40.751Z,99351.55
2023-01-29T23:38:26.533Z,99350.20
2023-01-29T23:41:19.467Z,99347.17
2023-01-29T23:44:12.853Z,99343.48
2023-01-29T23:47:05.710Z,99335.83
2023-01-29T23:50:00.857Z,99333.32
2023-01-29T23:52:53.606Z,99325.02
2023-01-29T23:55:56.446Z,99321.84
2023-01-29T23:58:49.380Z,99318.17
